Salamis Filoxenia — 5BUY2 — position and weather

sailwx.info

Track history (hours):
 
Tides and Currents Weather Stations Pressure Air Temp Water Temp Dewpoint Dewpoint Depression Visibility Wind Speed Wind Dir Waves Ship Positions

Salamis Filoxenia

Last reported at 2018-Jun-22 13:30 UTC. Time now 2018-Jun-22 13:30 UTC.
Position N 37°56' E 023°38'.

Length 157 m; draft 6.2 m.

Type: Passenger vessel. MMSI: 209167000.

Date/timePositionNaut miles runAvg speedWind from/ knotsBaromVisibWave heightAir tempDewpointWater temp
2018-Jun-22 13:30N 37°56' E 023°38'0 0.0
2018-Jun-22 13:00N 37°56' E 023°38'0 0.0
2018-Jun-22 12:30N 37°56' E 023°38'0 0.0
2018-Jun-22 12:00N 37°56' E 023°38'0 0.0
2018-Jun-22 11:30N 37°56' E 023°38'0 0.0
2018-Jun-22 11:00N 37°56' E 023°38'0 0.0
2018-Jun-22 10:30N 37°56' E 023°38'0 0.0
2018-Jun-22 10:00N 37°56' E 023°38'0 0.0
2018-Jun-22 09:30N 37°56' E 023°38'0 0.0
2018-Jun-22 09:00N 37°56' E 023°38'0 0.0
2018-Jun-22 08:30N 37°56' E 023°38'0 0.0
2018-Jun-22 08:00N 37°56' E 023°38'0 0.0
2018-Jun-22 07:30N 37°56' E 023°38'0 0.0
2018-Jun-22 06:59N 37°56' E 023°38'0 0.0
2018-Jun-22 06:30N 37°56' E 023°38'0 0.0
2018-Jun-22 06:00N 37°56' E 023°38'0 0.0
2018-Jun-22 05:30N 37°56' E 023°38'0 0.0
2018-Jun-22 05:00N 37°56' E 023°38'1 2.8
2018-Jun-22 04:30N 37°56' E 023°37'4 8.6
2018-Jun-22 04:00N 37°52' E 023°39'713.7
2018-Jun-22 03:30N 37°45' E 023°43'713.3
2018-Jun-22 03:00N 37°40' E 023°48'713.2
2018-Jun-22 02:29N 37°38' E 023°56'70 1.4
2018-Jun-19 22:55N 37°55' E 025°22'614.6
2018-Jun-19 22:31N 37°51' E 025°27'714.7
2018-Jun-19 22:00N 37°46' E 025°34'1914.7
2018-Jun-19 20:41N 37°33' E 025°53'39011.5
2018-Jun-18 10:41N 34°37' E 033°04'211.6
2018-Jun-18 10:31N 34°39' E 033°02'1 1.3
2018-Jun-18 09:57N 34°39' E 033°01'0 0.0
2018-Jun-18 09:30N 34°39' E 033°01'0 0.0
2018-Jun-18 09:00N 34°39' E 033°01'0 0.0
2018-Jun-18 08:30N 34°39' E 033°01'0 0.0
2018-Jun-18 08:00N 34°39' E 033°01'0 0.0
2018-Jun-18 07:30N 34°39' E 033°01'0 0.0
2018-Jun-18 07:00N 34°39' E 033°01'0 0.0
2018-Jun-18 06:31N 34°39' E 033°01'0 0.0
2018-Jun-18 06:00N 34°39' E 033°01'0 0.0
2018-Jun-18 05:30N 34°39' E 033°01'0 0.0
2018-Jun-18 05:00N 34°39' E 033°01'2 3.6
2018-Jun-18 04:28N 34°38' E 033°03'  
2018-Jun-15 15:49N 34°39' E 032°31'514.1
2018-Jun-15 15:30N 34°38' E 032°36'914.0
2018-Jun-15 14:51N 34°35' E 032°46'1013.7
2018-Jun-15 14:09N 34°32' E 032°58'214.1
2018-Jun-15 14:01N 34°32' E 033°00'611.6
2018-Jun-15 13:30N 34°37' E 033°04'3 5.2
2018-Jun-15 13:01N 34°39' E 033°01'0 0.0
2018-Jun-15 12:31N 34°39' E 033°01'0 0.0
2018-Jun-15 12:00N 34°39' E 033°01'0 0.0
2018-Jun-15 11:30N 34°39' E 033°01'0 0.0
2018-Jun-15 11:01N 34°39' E 033°01'0 0.0
2018-Jun-15 10:30N 34°39' E 033°01'0 0.0
2018-Jun-15 10:00N 34°39' E 033°01'0 0.0
2018-Jun-15 09:31N 34°39' E 033°01'0 0.0
2018-Jun-15 08:59N 34°39' E 033°01'0 0.0
2018-Jun-15 08:30N 34°39' E 033°01'0 0.0
2018-Jun-15 08:00N 34°39' E 033°01'0 0.0
2018-Jun-15 07:31N 34°39' E 033°01'0 0.0
2018-Jun-15 06:59N 34°39' E 033°01'0 0.0
2018-Jun-15 06:31N 34°39' E 033°01'0 0.0
2018-Jun-15 06:00N 34°39' E 033°01'0 0.0
2018-Jun-15 05:30N 34°39' E 033°01'0 0.0
2018-Jun-15 05:00N 34°39' E 033°01'0 0.0
2018-Jun-15 04:30N 34°39' E 033°01'0 0.0
2018-Jun-15 04:00N 34°39' E 033°01'0 0.0
2018-Jun-15 03:31N 34°39' E 033°01'0 0.0
2018-Jun-15 03:00N 34°39' E 033°01'0 0.0
2018-Jun-15 02:27N 34°39' E 033°01'0 0.0
2018-Jun-15 02:00N 34°39' E 033°01'0 0.0
2018-Jun-15 01:30N 34°39' E 033°01'0 0.0
2018-Jun-15 01:00N 34°39' E 033°01'0 0.0
2018-Jun-15 00:30N 34°39' E 033°01'0 0.0
2018-Jun-15 00:01N 34°39' E 033°01'0 0.0
2018-Jun-14 23:31N 34°39' E 033°01'0 0.0
2018-Jun-14 23:00N 34°39' E 033°01'0 0.0
2018-Jun-14 22:30N 34°39' E 033°01'0 0.0
2018-Jun-14 22:00N 34°39' E 033°01'0 0.0
2018-Jun-14 21:30N 34°39' E 033°01'0 0.0
2018-Jun-14 21:00N 34°39' E 033°01'0 0.0
2018-Jun-14 20:30N 34°39' E 033°01'0 0.0
2018-Jun-14 19:59N 34°39' E 033°01'0 0.0
2018-Jun-14 19:30N 34°39' E 033°01'0 0.0
2018-Jun-14 19:01N 34°39' E 033°01'0 0.0
2018-Jun-14 18:31N 34°39' E 033°01'0 0.0
2018-Jun-14 18:00N 34°39' E 033°01'0 0.0
2018-Jun-14 17:31N 34°39' E 033°01'0 0.0
2018-Jun-14 17:01N 34°39' E 033°01'0 0.0
2018-Jun-14 16:31N 34°39' E 033°01'0 0.0
2018-Jun-14 16:01N 34°39' E 033°01'0 0.0
2018-Jun-14 15:30N 34°39' E 033°01'0 0.0
2018-Jun-14 15:00N 34°39' E 033°01'0 0.0
2018-Jun-14 14:30N 34°39' E 033°01'0 0.0
2018-Jun-14 14:01N 34°39' E 033°01'0 0.0
2018-Jun-14 13:30N 34°39' E 033°01'0 0.0
2018-Jun-14 13:01N 34°39' E 033°01'0 0.0
2018-Jun-14 12:31N 34°39' E 033°01'0 0.0
2018-Jun-14 12:01N 34°39' E 033°01'0 0.0
2018-Jun-14 11:31N 34°39' E 033°01'0 0.0
2018-Jun-14 11:01N 34°39' E 033°01'0 0.0
2018-Jun-14 10:31N 34°39' E 033°01'0 0.0
2018-Jun-14 10:01N 34°39' E 033°01'0 0.0
2018-Jun-14 09:31N 34°39' E 033°01'0 0.0
2018-Jun-14 09:01N 34°39' E 033°01'0 0.0
2018-Jun-14 08:30N 34°39' E 033°01'0 0.0
2018-Jun-14 07:58N 34°39' E 033°01'0 0.0
2018-Jun-14 07:30N 34°39' E 033°01'0 0.0
2018-Jun-14 07:01N 34°39' E 033°01'0 0.0
2018-Jun-14 06:31N 34°39' E 033°01'0 0.0
2018-Jun-14 06:01N 34°39' E 033°01'0 0.0
2018-Jun-14 05:31N 34°39' E 033°01'0 0.0
2018-Jun-14 05:01N 34°39' E 033°01'0 0.0
2018-Jun-14 04:30N 34°39' E 033°01'0 0.0
2018-Jun-14 04:01N 34°39' E 033°01'0 0.0
2018-Jun-14 03:30N 34°39' E 033°01'0 0.0
2018-Jun-14 03:00N 34°39' E 033°01'0 0.0
2018-Jun-14 02:30N 34°39' E 033°01'0 0.0
2018-Jun-14 01:59N 34°39' E 033°01'0 0.0
2018-Jun-14 01:30N 34°39' E 033°01'0 0.0
2018-Jun-14 01:01N 34°39' E 033°01'0 0.0
2018-Jun-14 00:30N 34°39' E 033°01'0 0.0
2018-Jun-14 00:01N 34°39' E 033°01'0 0.0
2018-Jun-13 23:31N 34°39' E 033°01'0 0.0
2018-Jun-13 23:00N 34°39' E 033°01'0 0.0
2018-Jun-13 22:30N 34°39' E 033°01'0 0.0
2018-Jun-13 22:00N 34°39' E 033°01'0 0.0
2018-Jun-13 21:30N 34°39' E 033°01'0 0.0
2018-Jun-13 21:00N 34°39' E 033°01'0 0.0
2018-Jun-13 20:31N 34°39' E 033°01'0 0.0
2018-Jun-13 20:01N 34°39' E 033°01'0 0.0
2018-Jun-13 19:31N 34°39' E 033°01'0 0.0
2018-Jun-13 19:01N 34°39' E 033°01'0 0.0
2018-Jun-13 18:31N 34°39' E 033°01'0 0.0
2018-Jun-13 18:00N 34°39' E 033°01'0 0.0
2018-Jun-13 17:31N 34°39' E 033°01'0 0.0
2018-Jun-13 17:01N 34°39' E 033°01'0 0.0
2018-Jun-13 16:31N 34°39' E 033°01'0 0.0
2018-Jun-13 16:01N 34°39' E 033°01'0 0.0
2018-Jun-13 15:31N 34°39' E 033°01'0 0.0
2018-Jun-13 15:01N 34°39' E 033°01'0 0.0
2018-Jun-13 14:31N 34°39' E 033°01'0 0.0
2018-Jun-13 14:00N 34°39' E 033°01'0 0.0
2018-Jun-13 13:30N 34°39' E 033°01'0 0.0
2018-Jun-13 13:01N 34°39' E 033°01'0 0.0
2018-Jun-13 12:31N 34°39' E 033°01'0 0.0
2018-Jun-13 12:00N 34°39' E 033°01'0 0.0
2018-Jun-13 11:31N 34°39' E 033°01'0 0.0
2018-Jun-13 11:01N 34°39' E 033°01'0 0.0
2018-Jun-13 10:31N 34°39' E 033°01'0 0.0
2018-Jun-13 10:00N 34°39' E 033°01'0 0.0
2018-Jun-13 09:30N 34°39' E 033°01'0 0.0
2018-Jun-13 09:01N 34°39' E 033°01'0 0.0
2018-Jun-13 08:31N 34°39' E 033°01'0 0.0
2018-Jun-13 08:00N 34°39' E 033°01'0 0.0
2018-Jun-13 07:31N 34°39' E 033°01'0 0.0
2018-Jun-13 07:01N 34°39' E 033°01'0 0.0
2018-Jun-13 06:31N 34°39' E 033°01'0 0.0
2018-Jun-13 06:00N 34°39' E 033°01'0 0.0
2018-Jun-13 05:31N 34°39' E 033°01'0 0.0
2018-Jun-13 05:01N 34°39' E 033°01'0 0.0
2018-Jun-13 04:31N 34°39' E 033°01'0 0.0
2018-Jun-13 04:01N 34°39' E 033°01'0 0.0
2018-Jun-13 03:30N 34°39' E 033°01'0 0.0
2018-Jun-13 03:00N 34°39' E 033°01'0 0.0
2018-Jun-13 02:31N 34°39' E 033°01'0 0.0
2018-Jun-13 02:01N 34°39' E 033°01'0 0.0
2018-Jun-13 01:31N 34°39' E 033°01'0 0.0
2018-Jun-13 01:00N 34°39' E 033°01'0 0.0
2018-Jun-13 00:31N 34°39' E 033°01'0 0.0
2018-Jun-13 00:01N 34°39' E 033°01'0 0.0
2018-Jun-12 23:31N 34°39' E 033°01'0 0.0
2018-Jun-12 23:01N 34°39' E 033°01'0 0.0
2018-Jun-12 22:30N 34°39' E 033°01'0 0.0
2018-Jun-12 22:00N 34°39' E 033°01'0 0.0
2018-Jun-12 21:31N 34°39' E 033°01'0 0.0
2018-Jun-12 21:00N 34°39' E 033°01'0 0.0
2018-Jun-12 20:30N 34°39' E 033°01'0 0.0
2018-Jun-12 20:01N 34°39' E 033°01'0 0.0
2018-Jun-12 19:31N 34°39' E 033°01'0 0.0
2018-Jun-12 19:01N 34°39' E 033°01'0 0.0
2018-Jun-12 18:30N 34°39' E 033°01'0 0.0
2018-Jun-12 18:00N 34°39' E 033°01'0 0.0
2018-Jun-12 17:31N 34°39' E 033°01'0 0.0
2018-Jun-12 17:01N 34°39' E 033°01'0 0.0
2018-Jun-12 16:30N 34°39' E 033°01'0 0.0
2018-Jun-12 16:01N 34°39' E 033°01'0 0.0
2018-Jun-12 15:30N 34°39' E 033°01'0 0.0
2018-Jun-12 15:01N 34°39' E 033°01'0 0.0
2018-Jun-12 14:31N 34°39' E 033°01'0 0.0
2018-Jun-12 14:01N 34°39' E 033°01'  
Track history (hours):
 
Tides and Currents Weather Stations Pressure Air Temp Water Temp Dewpoint Dewpoint Depression Visibility Wind Speed Wind Dir Waves Ship Positions

Salamis Filoxenia

Last reported at 2018-Jun-22 13:30 UTC. Time now 2018-Jun-22 13:30 UTC.
Position N 37°56' E 023°38'.

Length 157 m; draft 6.2 m.

Type: Passenger vessel. MMSI: 209167000.

Date/timePositionNaut miles runAvg speedWind from/ knotsBaromVisibWave heightAir tempDewpointWater temp
2018-Jun-22 13:30N 37°56' E 023°38'0 0.0
2018-Jun-22 13:00N 37°56' E 023°38'0 0.0
2018-Jun-22 12:30N 37°56' E 023°38'0 0.0
2018-Jun-22 12:00N 37°56' E 023°38'0 0.0
2018-Jun-22 11:30N 37°56' E 023°38'0 0.0
2018-Jun-22 11:00N 37°56' E 023°38'0 0.0
2018-Jun-22 10:30N 37°56' E 023°38'0 0.0
2018-Jun-22 10:00N 37°56' E 023°38'0 0.0
2018-Jun-22 09:30N 37°56' E 023°38'0 0.0
2018-Jun-22 09:00N 37°56' E 023°38'0 0.0
2018-Jun-22 08:30N 37°56' E 023°38'0 0.0
2018-Jun-22 08:00N 37°56' E 023°38'0 0.0
2018-Jun-22 07:30N 37°56' E 023°38'0 0.0
2018-Jun-22 06:59N 37°56' E 023°38'0 0.0
2018-Jun-22 06:30N 37°56' E 023°38'0 0.0
2018-Jun-22 06:00N 37°56' E 023°38'0 0.0
2018-Jun-22 05:30N 37°56' E 023°38'0 0.0
2018-Jun-22 05:00N 37°56' E 023°38'1 2.8
2018-Jun-22 04:30N 37°56' E 023°37'4 8.6
2018-Jun-22 04:00N 37°52' E 023°39'713.7
2018-Jun-22 03:30N 37°45' E 023°43'713.3
2018-Jun-22 03:00N 37°40' E 023°48'713.2
2018-Jun-22 02:29N 37°38' E 023°56'70 1.4
2018-Jun-19 22:55N 37°55' E 025°22'614.6
2018-Jun-19 22:31N 37°51' E 025°27'714.7
2018-Jun-19 22:00N 37°46' E 025°34'1914.7
2018-Jun-19 20:41N 37°33' E 025°53'39011.5
2018-Jun-18 10:41N 34°37' E 033°04'211.6
2018-Jun-18 10:31N 34°39' E 033°02'1 1.3
2018-Jun-18 09:57N 34°39' E 033°01'0 0.0
2018-Jun-18 09:30N 34°39' E 033°01'0 0.0
2018-Jun-18 09:00N 34°39' E 033°01'0 0.0
2018-Jun-18 08:30N 34°39' E 033°01'0 0.0
2018-Jun-18 08:00N 34°39' E 033°01'0 0.0
2018-Jun-18 07:30N 34°39' E 033°01'0 0.0
2018-Jun-18 07:00N 34°39' E 033°01'0 0.0
2018-Jun-18 06:31N 34°39' E 033°01'0 0.0
2018-Jun-18 06:00N 34°39' E 033°01'0 0.0
2018-Jun-18 05:30N 34°39' E 033°01'0 0.0
2018-Jun-18 05:00N 34°39' E 033°01'2 3.6
2018-Jun-18 04:28N 34°38' E 033°03'  
2018-Jun-15 15:49N 34°39' E 032°31'514.1
2018-Jun-15 15:30N 34°38' E 032°36'914.0
2018-Jun-15 14:51N 34°35' E 032°46'1013.7
2018-Jun-15 14:09N 34°32' E 032°58'214.1
2018-Jun-15 14:01N 34°32' E 033°00'611.6
2018-Jun-15 13:30N 34°37' E 033°04'3 5.2
2018-Jun-15 13:01N 34°39' E 033°01'0 0.0
2018-Jun-15 12:31N 34°39' E 033°01'0 0.0
2018-Jun-15 12:00N 34°39' E 033°01'0 0.0
2018-Jun-15 11:30N 34°39' E 033°01'0 0.0
2018-Jun-15 11:01N 34°39' E 033°01'0 0.0
2018-Jun-15 10:30N 34°39' E 033°01'0 0.0
2018-Jun-15 10:00N 34°39' E 033°01'0 0.0
2018-Jun-15 09:31N 34°39' E 033°01'0 0.0
2018-Jun-15 08:59N 34°39' E 033°01'0 0.0
2018-Jun-15 08:30N 34°39' E 033°01'0 0.0
2018-Jun-15 08:00N 34°39' E 033°01'0 0.0
2018-Jun-15 07:31N 34°39' E 033°01'0 0.0
2018-Jun-15 06:59N 34°39' E 033°01'0 0.0
2018-Jun-15 06:31N 34°39' E 033°01'0 0.0
2018-Jun-15 06:00N 34°39' E 033°01'0 0.0
2018-Jun-15 05:30N 34°39' E 033°01'0 0.0
2018-Jun-15 05:00N 34°39' E 033°01'0 0.0
2018-Jun-15 04:30N 34°39' E 033°01'0 0.0
2018-Jun-15 04:00N 34°39' E 033°01'0 0.0
2018-Jun-15 03:31N 34°39' E 033°01'0 0.0
2018-Jun-15 03:00N 34°39' E 033°01'0 0.0
2018-Jun-15 02:27N 34°39' E 033°01'0 0.0
2018-Jun-15 02:00N 34°39' E 033°01'0 0.0
2018-Jun-15 01:30N 34°39' E 033°01'0 0.0
2018-Jun-15 01:00N 34°39' E 033°01'0 0.0
2018-Jun-15 00:30N 34°39' E 033°01'0 0.0
2018-Jun-15 00:01N 34°39' E 033°01'0 0.0
2018-Jun-14 23:31N 34°39' E 033°01'0 0.0
2018-Jun-14 23:00N 34°39' E 033°01'0 0.0
2018-Jun-14 22:30N 34°39' E 033°01'0 0.0
2018-Jun-14 22:00N 34°39' E 033°01'0 0.0
2018-Jun-14 21:30N 34°39' E 033°01'0 0.0
2018-Jun-14 21:00N 34°39' E 033°01'0 0.0
2018-Jun-14 20:30N 34°39' E 033°01'0 0.0
2018-Jun-14 19:59N 34°39' E 033°01'0 0.0
2018-Jun-14 19:30N 34°39' E 033°01'0 0.0
2018-Jun-14 19:01N 34°39' E 033°01'0 0.0
2018-Jun-14 18:31N 34°39' E 033°01'0 0.0
2018-Jun-14 18:00N 34°39' E 033°01'0 0.0
2018-Jun-14 17:31N 34°39' E 033°01'0 0.0
2018-Jun-14 17:01N 34°39' E 033°01'0 0.0
2018-Jun-14 16:31N 34°39' E 033°01'0 0.0
2018-Jun-14 16:01N 34°39' E 033°01'0 0.0
2018-Jun-14 15:30N 34°39' E 033°01'0 0.0
2018-Jun-14 15:00N 34°39' E 033°01'0 0.0
2018-Jun-14 14:30N 34°39' E 033°01'0 0.0
2018-Jun-14 14:01N 34°39' E 033°01'0 0.0
2018-Jun-14 13:30N 34°39' E 033°01'0 0.0
2018-Jun-14 13:01N 34°39' E 033°01'0 0.0
2018-Jun-14 12:31N 34°39' E 033°01'0 0.0
2018-Jun-14 12:01N 34°39' E 033°01'0 0.0
2018-Jun-14 11:31N 34°39' E 033°01'0 0.0
2018-Jun-14 11:01N 34°39' E 033°01'0 0.0
2018-Jun-14 10:31N 34°39' E 033°01'0 0.0
2018-Jun-14 10:01N 34°39' E 033°01'0 0.0
2018-Jun-14 09:31N 34°39' E 033°01'0 0.0
2018-Jun-14 09:01N 34°39' E 033°01'0 0.0
2018-Jun-14 08:30N 34°39' E 033°01'0 0.0
2018-Jun-14 07:58N 34°39' E 033°01'0 0.0
2018-Jun-14 07:30N 34°39' E 033°01'0 0.0
2018-Jun-14 07:01N 34°39' E 033°01'0 0.0
2018-Jun-14 06:31N 34°39' E 033°01'0 0.0
2018-Jun-14 06:01N 34°39' E 033°01'0 0.0
2018-Jun-14 05:31N 34°39' E 033°01'0 0.0
2018-Jun-14 05:01N 34°39' E 033°01'0 0.0
2018-Jun-14 04:30N 34°39' E 033°01'0 0.0
2018-Jun-14 04:01N 34°39' E 033°01'0 0.0
2018-Jun-14 03:30N 34°39' E 033°01'0 0.0
2018-Jun-14 03:00N 34°39' E 033°01'0 0.0
2018-Jun-14 02:30N 34°39' E 033°01'0 0.0
2018-Jun-14 01:59N 34°39' E 033°01'0 0.0
2018-Jun-14 01:30N 34°39' E 033°01'0 0.0
2018-Jun-14 01:01N 34°39' E 033°01'0 0.0
2018-Jun-14 00:30N 34°39' E 033°01'0 0.0
2018-Jun-14 00:01N 34°39' E 033°01'0 0.0
2018-Jun-13 23:31N 34°39' E 033°01'0 0.0
2018-Jun-13 23:00N 34°39' E 033°01'0 0.0
2018-Jun-13 22:30N 34°39' E 033°01'0 0.0
2018-Jun-13 22:00N 34°39' E 033°01'0 0.0
2018-Jun-13 21:30N 34°39' E 033°01'0 0.0
2018-Jun-13 21:00N 34°39' E 033°01'0 0.0
2018-Jun-13 20:31N 34°39' E 033°01'0 0.0
2018-Jun-13 20:01N 34°39' E 033°01'0 0.0
2018-Jun-13 19:31N 34°39' E 033°01'0 0.0
2018-Jun-13 19:01N 34°39' E 033°01'0 0.0
2018-Jun-13 18:31N 34°39' E 033°01'0 0.0
2018-Jun-13 18:00N 34°39' E 033°01'0 0.0
2018-Jun-13 17:31N 34°39' E 033°01'0 0.0
2018-Jun-13 17:01N 34°39' E 033°01'0 0.0
2018-Jun-13 16:31N 34°39' E 033°01'0 0.0
2018-Jun-13 16:01N 34°39' E 033°01'0 0.0
2018-Jun-13 15:31N 34°39' E 033°01'0 0.0
2018-Jun-13 15:01N 34°39' E 033°01'0 0.0
2018-Jun-13 14:31N 34°39' E 033°01'0 0.0
2018-Jun-13 14:00N 34°39' E 033°01'0 0.0
2018-Jun-13 13:30N 34°39' E 033°01'0 0.0
2018-Jun-13 13:01N 34°39' E 033°01'0 0.0
2018-Jun-13 12:31N 34°39' E 033°01'0 0.0
2018-Jun-13 12:00N 34°39' E 033°01'0 0.0
2018-Jun-13 11:31N 34°39' E 033°01'0 0.0
2018-Jun-13 11:01N 34°39' E 033°01'0 0.0
2018-Jun-13 10:31N 34°39' E 033°01'0 0.0
2018-Jun-13 10:00N 34°39' E 033°01'0 0.0
2018-Jun-13 09:30N 34°39' E 033°01'0 0.0
2018-Jun-13 09:01N 34°39' E 033°01'0 0.0
2018-Jun-13 08:31N 34°39' E 033°01'0 0.0
2018-Jun-13 08:00N 34°39' E 033°01'0 0.0
2018-Jun-13 07:31N 34°39' E 033°01'0 0.0
2018-Jun-13 07:01N 34°39' E 033°01'0 0.0
2018-Jun-13 06:31N 34°39' E 033°01'0 0.0
2018-Jun-13 06:00N 34°39' E 033°01'0 0.0
2018-Jun-13 05:31N 34°39' E 033°01'0 0.0
2018-Jun-13 05:01N 34°39' E 033°01'0 0.0
2018-Jun-13 04:31N 34°39' E 033°01'0 0.0
2018-Jun-13 04:01N 34°39' E 033°01'0 0.0
2018-Jun-13 03:30N 34°39' E 033°01'0 0.0
2018-Jun-13 03:00N 34°39' E 033°01'0 0.0
2018-Jun-13 02:31N 34°39' E 033°01'0 0.0
2018-Jun-13 02:01N 34°39' E 033°01'0 0.0
2018-Jun-13 01:31N 34°39' E 033°01'0 0.0
2018-Jun-13 01:00N 34°39' E 033°01'0 0.0
2018-Jun-13 00:31N 34°39' E 033°01'0 0.0
2018-Jun-13 00:01N 34°39' E 033°01'0 0.0
2018-Jun-12 23:31N 34°39' E 033°01'0 0.0
2018-Jun-12 23:01N 34°39' E 033°01'0 0.0
2018-Jun-12 22:30N 34°39' E 033°01'0 0.0
2018-Jun-12 22:00N 34°39' E 033°01'0 0.0
2018-Jun-12 21:31N 34°39' E 033°01'0 0.0
2018-Jun-12 21:00N 34°39' E 033°01'0 0.0
2018-Jun-12 20:30N 34°39' E 033°01'0 0.0
2018-Jun-12 20:01N 34°39' E 033°01'0 0.0
2018-Jun-12 19:31N 34°39' E 033°01'0 0.0
2018-Jun-12 19:01N 34°39' E 033°01'0 0.0
2018-Jun-12 18:30N 34°39' E 033°01'0 0.0
2018-Jun-12 18:00N 34°39' E 033°01'0 0.0
2018-Jun-12 17:31N 34°39' E 033°01'0 0.0
2018-Jun-12 17:01N 34°39' E 033°01'0 0.0
2018-Jun-12 16:30N 34°39' E 033°01'0 0.0
2018-Jun-12 16:01N 34°39' E 033°01'0 0.0
2018-Jun-12 15:30N 34°39' E 033°01'0 0.0
2018-Jun-12 15:01N 34°39' E 033°01'0 0.0
2018-Jun-12 14:31N 34°39' E 033°01'0 0.0
2018-Jun-12 14:01N 34°39' E 033°01'  

Dump ship's entire track history